sensor_id;sensor_type;location;lat;lon;timestamp;pressure;altitude;pressure_sealevel;temperature;humidity
5651;BME280;40241;52.684;9.758;2023-04-19T00:00:13;102745.88;;;12.21;42.56
5651;BME280;40241;52.684;9.758;2023-04-19T00:02:38;102735.22;;;12.11;42.23
5651;BME280;40241;52.684;9.758;2023-04-19T00:05:06;102743.78;;;12.03;42.42
5651;BME280;40241;52.684;9.758;2023-04-19T00:07:31;102747.38;;;11.91;42.54
5651;BME280;40241;52.684;9.758;2023-04-19T00:09:57;102736.88;;;11.77;42.53
5651;BME280;40241;52.684;9.758;2023-04-19T00:12:22;102735.47;;;11.73;42.80
5651;BME280;40241;52.684;9.758;2023-04-19T00:14:48;102735.81;;;11.62;42.60
5651;BME280;40241;52.684;9.758;2023-04-19T00:17:13;102733.97;;;11.59;42.62
5651;BME280;40241;52.684;9.758;2023-04-19T00:19:38;102733.19;;;11.59;42.79
5651;BME280;40241;52.684;9.758;2023-04-19T00:22:04;102727.09;;;11.42;43.01
5651;BME280;40241;52.684;9.758;2023-04-19T00:24:29;102734.06;;;11.34;42.80
5651;BME280;40241;52.684;9.758;2023-04-19T00:26:54;102726.94;;;11.24;42.99
5651;BME280;40241;52.684;9.758;2023-04-19T00:29:21;102728.75;;;11.18;43.10
5651;BME280;40241;52.684;9.758;2023-04-19T00:31:47;102723.47;;;11.11;42.99
5651;BME280;40241;52.684;9.758;2023-04-19T00:34:12;102729.53;;;11.06;43.06
5651;BME280;40241;52.684;9.758;2023-04-19T00:36:37;102718.50;;;11.06;43.35
5651;BME280;40241;52.684;9.758;2023-04-19T00:39:03;102722.59;;;11.01;43.20
5651;BME280;40241;52.684;9.758;2023-04-19T00:41:28;102722.81;;;10.94;43.15
5651;BME280;40241;52.684;9.758;2023-04-19T00:43:53;102728.13;;;10.89;43.11
5651;BME280;40241;52.684;9.758;2023-04-19T00:46:19;102722.09;;;10.81;43.36
5651;BME280;40241;52.684;9.758;2023-04-19T00:48:45;102729.94;;;10.70;43.21
5651;BME280;40241;52.684;9.758;2023-04-19T00:51:11;102718.25;;;10.66;43.67
5651;BME280;40241;52.684;9.758;2023-04-19T00:53:37;102722.69;;;10.64;43.52
5651;BME280;40241;52.684;9.758;2023-04-19T00:56:03;102724.34;;;10.61;43.62
5651;BME280;40241;52.684;9.758;2023-04-19T00:58:29;102718.19;;;10.57;43.56
5651;BME280;40241;52.684;9.758;2023-04-19T01:00:56;102723.00;;;10.53;43.74
5651;BME280;40241;52.684;9.758;2023-04-19T01:03:21;102717.94;;;10.51;43.74
5651;BME280;40241;52.684;9.758;2023-04-19T01:05:47;102715.97;;;10.52;43.80
5651;BME280;40241;52.684;9.758;2023-04-19T01:08:13;102711.13;;;10.43;43.71
5651;BME280;40241;52.684;9.758;2023-04-19T01:10:38;102715.66;;;10.37;43.89
5651;BME280;40241;52.684;9.758;2023-04-19T01:13:04;102713.13;;;10.30;43.82
5651;BME280;40241;52.684;9.758;2023-04-19T01:15:29;102723.47;;;10.26;44.21
5651;BME280;40241;52.684;9.758;2023-04-19T01:17:56;102711.03;;;10.22;44.23
5651;BME280;40241;52.684;9.758;2023-04-19T01:20:21;102712.66;;;10.19;44.36
5651;BME280;40241;52.684;9.758;2023-04-19T01:22:47;102713.88;;;10.18;44.29
5651;BME280;40241;52.684;9.758;2023-04-19T01:25:12;102715.50;;;10.16;44.36
5651;BME280;40241;52.684;9.758;2023-04-19T01:27:37;102712.19;;;10.08;44.15
5651;BME280;40241;52.684;9.758;2023-04-19T01:30:03;102710.88;;;10.00;44.44
5651;BME280;40241;52.684;9.758;2023-04-19T01:32:28;102703.81;;;9.99;44.61
5651;BME280;40241;52.684;9.758;2023-04-19T01:34:54;102710.63;;;9.95;44.58
5651;BME280;40241;52.684;9.758;2023-04-19T01:37:19;102718.31;;;9.87;44.52
5651;BME280;40241;52.684;9.758;2023-04-19T01:39:45;102710.59;;;9.82;44.65
5651;BME280;40241;52.684;9.758;2023-04-19T01:42:10;102710.28;;;9.80;44.55
5651;BME280;40241;52.684;9.758;2023-04-19T01:44:35;102725.31;;;9.75;44.82
5651;BME280;40241;52.684;9.758;2023-04-19T01:47:01;102711.66;;;9.72;44.85
5651;BME280;40241;52.684;9.758;2023-04-19T01:49:26;102715.28;;;9.69;44.85
5651;BME280;40241;52.684;9.758;2023-04-19T01:51:52;102698.13;;;9.65;44.97
5651;BME280;40241;52.684;9.758;2023-04-19T01:54:17;102706.81;;;9.63;45.00
5651;BME280;40241;52.684;9.758;2023-04-19T01:56:42;102702.38;;;9.53;45.01
5651;BME280;40241;52.684;9.758;2023-04-19T01:59:08;102701.72;;;9.49;45.07
5651;BME280;40241;52.684;9.758;2023-04-19T02:01:33;102696.84;;;9.41;45.32
5651;BME280;40241;52.684;9.758;2023-04-19T02:03:58;102705.16;;;9.37;45.04
5651;BME280;40241;52.684;9.758;2023-04-19T02:06:24;102701.34;;;9.35;45.37
5651;BME280;40241;52.684;9.758;2023-04-19T02:08:51;102704.59;;;9.30;45.40
5651;BME280;40241;52.684;9.758;2023-04-19T02:11:16;102701.72;;;9.21;45.47
5651;BME280;40241;52.684;9.758;2023-04-19T02:13:42;102700.44;;;9.09;45.68
5651;BME280;40241;52.684;9.758;2023-04-19T02:16:08;102698.47;;;9.10;45.79
5651;BME280;40241;52.684;9.758;2023-04-19T02:18:34;102698.47;;;9.10;45.71
5651;BME280;40241;52.684;9.758;2023-04-19T02:21:03;102704.41;;;9.08;45.75
5651;BME280;40241;52.684;9.758;2023-04-19T02:23:28;102710.06;;;9.01;45.94
5651;BME280;40241;52.684;9.758;2023-04-19T02:25:53;102703.78;;;9.00;46.09
5651;BME280;40241;52.684;9.758;2023-04-19T02:28:19;102710.91;;;8.98;45.86
5651;BME280;40241;52.684;9.758;2023-04-19T02:30:44;102709.22;;;8.88;46.10
5651;BME280;40241;52.684;9.758;2023-04-19T02:33:09;102702.28;;;8.83;46.21
5651;BME280;40241;52.684;9.758;2023-04-19T02:35:35;102710.34;;;8.74;46.15
5651;BME280;40241;52.684;9.758;2023-04-19T02:38:01;102713.19;;;8.71;46.39
5651;BME280;40241;52.684;9.758;2023-04-19T02:40:27;102714.38;;;8.70;46.46
5651;BME280;40241;52.684;9.758;2023-04-19T02:42:52;102709.66;;;8.70;46.42
5651;BME280;40241;52.684;9.758;2023-04-19T02:45:17;102707.75;;;8.67;46.48
5651;BME280;40241;52.684;9.758;2023-04-19T02:47:43;102715.75;;;8.62;46.61
5651;BME280;40241;52.684;9.758;2023-04-19T02:50:10;102707.84;;;8.64;46.79
5651;BME280;40241;52.684;9.758;2023-04-19T02:52:36;102702.72;;;8.66;46.55
5651;BME280;40241;52.684;9.758;2023-04-19T02:55:01;102710.09;;;8.69;46.61
5651;BME280;40241;52.684;9.758;2023-04-19T02:57:27;102699.19;;;8.65;46.62
5651;BME280;40241;52.684;9.758;2023-04-19T02:59:52;102701.59;;;8.63;46.59
5651;BME280;40241;52.684;9.758;2023-04-19T03:02:17;102698.50;;;8.61;46.58
5651;BME280;40241;52.684;9.758;2023-04-19T03:04:43;102717.38;;;8.59;46.88
5651;BME280;40241;52.684;9.758;2023-04-19T03:07:08;102699.88;;;8.53;46.82
5651;BME280;40241;52.684;9.758;2023-04-19T03:09:34;102704.34;;;8.47;47.10
5651;BME280;40241;52.684;9.758;2023-04-19T03:11:59;102705.97;;;8.45;47.17
5651;BME280;40241;52.684;9.758;2023-04-19T03:14:25;102700.88;;;8.43;47.04
5651;BME280;40241;52.684;9.758;2023-04-19T03:16:50;102702.88;;;8.43;47.32
5651;BME280;40241;52.684;9.758;2023-04-19T03:19:16;102691.47;;;8.44;47.13
5651;BME280;40241;52.684;9.758;2023-04-19T03:21:41;102696.72;;;8.39;46.97
5651;BME280;40241;52.684;9.758;2023-04-19T03:24:07;102686.22;;;8.34;47.34
5651;BME280;40241;52.684;9.758;2023-04-19T03:26:32;102688.34;;;8.26;47.36
5651;BME280;40241;52.684;9.758;2023-04-19T03:28:57;102695.03;;;8.25;47.35
5651;BME280;40241;52.684;9.758;2023-04-19T03:31:23;102682.47;;;8.27;47.47
5651;BME280;40241;52.684;9.758;2023-04-19T03:33:48;102679.38;;;8.25;47.36
5651;BME280;40241;52.684;9.758;2023-04-19T03:36:13;102681.81;;;8.20;47.63
5651;BME280;40241;52.684;9.758;2023-04-19T03:38:39;102683.44;;;8.17;47.53
5651;BME280;40241;52.684;9.758;2023-04-19T03:41:05;102677.16;;;8.17;47.66
5651;BME280;40241;52.684;9.758;2023-04-19T03:43:42;102680.00;;;8.13;47.42
5651;BME280;40241;52.684;9.758;2023-04-19T03:46:07;102673.75;;;8.13;47.42
5651;BME280;40241;52.684;9.758;2023-04-19T03:48:32;102671.78;;;8.13;47.79
5651;BME280;40241;52.684;9.758;2023-04-19T03:50:59;102680.00;;;8.13;47.71
5651;BME280;40241;52.684;9.758;2023-04-19T03:53:25;102673.00;;;8.12;47.76
5651;BME280;40241;52.684;9.758;2023-04-19T03:55:50;102683.09;;;8.15;47.66
5651;BME280;40241;52.684;9.758;2023-04-19T03:58:15;102677.59;;;8.15;47.63
5651;BME280;40241;52.684;9.758;2023-04-19T04:00:41;102681.47;;;8.18;47.51
5651;BME280;40241;52.684;9.758;2023-04-19T04:03:06;102679.56;;;8.15;47.65
5651;BME280;40241;52.684;9.758;2023-04-19T04:05:31;102683.94;;;8.12;47.55
5651;BME280;40241;52.684;9.758;2023-04-19T04:07:57;102677.75;;;8.08;47.87
5651;BME280;40241;52.684;9.758;2023-04-19T04:10:22;102684.78;;;8.09;47.61
5651;BME280;40241;52.684;9.758;2023-04-19T04:12:47;102682.31;;;8.15;47.71
5651;BME280;40241;52.684;9.758;2023-04-19T04:15:13;102679.91;;;8.17;47.89
5651;BME280;40241;52.684;9.758;2023-04-19T04:17:38;102682.66;;;8.17;47.67
5651;BME280;40241;52.684;9.758;2023-04-19T04:20:04;102679.91;;;8.17;47.83
5651;BME280;40241;52.684;9.758;2023-04-19T04:22:29;102673.69;;;8.16;47.94
5651;BME280;40241;52.684;9.758;2023-04-19T04:24:55;102679.16;;;8.16;47.69
5651;BME280;40241;52.684;9.758;2023-04-19T04:27:22;102671.34;;;8.15;47.99
5651;BME280;40241;52.684;9.758;2023-04-19T04:29:47;102670.59;;;8.14;47.69
5651;BME280;40241;52.684;9.758;2023-04-19T04:32:13;102678.81;;;8.14;47.68
5651;BME280;40241;52.684;9.758;2023-04-19T04:34:42;102681.97;;;8.13;47.91
5651;BME280;40241;52.684;9.758;2023-04-19T04:37:07;102678.38;;;8.16;47.67
5651;BME280;40241;52.684;9.758;2023-04-19T04:39:33;102672.56;;;8.14;48.01
5651;BME280;40241;52.684;9.758;2023-04-19T04:42:03;102675.97;;;8.18;48.05
5651;BME280;40241;52.684;9.758;2023-04-19T04:44:29;102677.09;;;8.20;48.08
5651;BME280;40241;52.684;9.758;2023-04-19T04:46:54;102670.84;;;8.20;48.06
5651;BME280;40241;52.684;9.758;2023-04-19T04:49:20;102685.34;;;8.20;47.94
5651;BME280;40241;52.684;9.758;2023-04-19T04:51:46;102678.97;;;8.23;47.95
5651;BME280;40241;52.684;9.758;2023-04-19T04:54:11;102687.50;;;8.29;47.96
5651;BME280;40241;52.684;9.758;2023-04-19T04:56:37;102677.31;;;8.29;47.74
5651;BME280;40241;52.684;9.758;2023-04-19T04:59:02;102682.81;;;8.29;47.53
5651;BME280;40241;52.684;9.758;2023-04-19T05:01:29;102676.53;;;8.29;48.06
5651;BME280;40241;52.684;9.758;2023-04-19T05:03:54;102677.31;;;8.29;47.58
5651;BME280;40241;52.684;9.758;2023-04-19T05:06:20;102685.22;;;8.27;47.84
5651;BME280;40241;52.684;9.758;2023-04-19T05:08:45;102682.81;;;8.29;47.70
5651;BME280;40241;52.684;9.758;2023-04-19T05:11:10;102681.25;;;8.28;48.16
5651;BME280;40241;52.684;9.758;2023-04-19T05:13:36;102680.47;;;8.28;47.99
5651;BME280;40241;52.684;9.758;2023-04-19T05:16:01;102685.47;;;8.33;48.24
5651;BME280;40241;52.684;9.758;2023-04-19T05:18:26;102678.00;;;8.34;47.94
5651;BME280;40241;52.684;9.758;2023-04-19T05:20:52;102681.88;;;8.36;48.03
5651;BME280;40241;52.684;9.758;2023-04-19T05:23:17;102683.41;;;8.37;48.15
5651;BME280;40241;52.684;9.758;2023-04-19T05:25:43;102685.63;;;8.42;48.30
5651;BME280;40241;52.684;9.758;2023-04-19T05:28:08;102687.88;;;8.47;48.14
5651;BME280;40241;52.684;9.758;2023-04-19T05:30:33;102706.91;;;8.54;48.24
5651;BME280;40241;52.684;9.758;2023-04-19T05:32:59;102688.47;;;8.55;47.92
5651;BME280;40241;52.684;9.758;2023-04-19T05:35:24;102692.94;;;8.65;48.08
5651;BME280;40241;52.684;9.758;2023-04-19T05:37:50;102686.06;;;8.73;48.19
5651;BME280;40241;52.684;9.758;2023-04-19T05:40:15;102684.63;;;8.84;47.88
5651;BME280;40241;52.684;9.758;2023-04-19T05:42:41;102680.03;;;8.94;47.67
5651;BME280;40241;52.684;9.758;2023-04-19T05:45:08;102679.53;;;8.99;47.67
5651;BME280;40241;52.684;9.758;2023-04-19T05:47:33;102678.91;;;9.07;47.65
5651;BME280;40241;52.684;9.758;2023-04-19T05:49:58;102678.28;;;9.16;47.75
5651;BME280;40241;52.684;9.758;2023-04-19T05:52:24;102674.13;;;9.24;47.44
5651;BME280;40241;52.684;9.758;2023-04-19T05:54:49;102679.38;;;9.35;47.45
5651;BME280;40241;52.684;9.758;2023-04-19T05:57:14;102672.00;;;9.44;47.26
5651;BME280;40241;52.684;9.758;2023-04-19T05:59:40;102671.81;;;9.51;47.14
5651;BME280;40241;52.684;9.758;2023-04-19T06:02:06;102677.22;;;9.55;47.20
5651;BME280;40241;52.684;9.758;2023-04-19T06:04:31;102670.53;;;9.56;47.09
5651;BME280;40241;52.684;9.758;2023-04-19T06:06:57;102671.72;;;9.55;47.09
5651;BME280;40241;52.684;9.758;2023-04-19T06:09:22;102675.25;;;9.68;47.20
5651;BME280;40241;52.684;9.758;2023-04-19T06:11:47;102673.09;;;9.75;47.17
5651;BME280;40241;52.684;9.758;2023-04-19T06:14:13;102669.59;;;9.88;47.11
5651;BME280;40241;52.684;9.758;2023-04-19T06:16:39;102669.25;;;9.98;46.97
5651;BME280;40241;52.684;9.758;2023-04-19T06:19:04;102664.56;;;10.11;46.69
5651;BME280;40241;52.684;9.758;2023-04-19T06:21:32;102663.94;;;10.20;46.72
5651;BME280;40241;52.684;9.758;2023-04-19T06:23:57;102671.84;;;10.30;46.63
5651;BME280;40241;52.684;9.758;2023-04-19T06:26:23;102669.41;;;10.32;46.54
5651;BME280;40241;52.684;9.758;2023-04-19T06:28:48;102665.88;;;10.32;46.50
5651;BME280;40241;52.684;9.758;2023-04-19T06:31:13;102668.09;;;10.37;46.18
5651;BME280;40241;52.684;9.758;2023-04-19T06:33:39;102658.41;;;10.32;46.14
5651;BME280;40241;52.684;9.758;2023-04-19T06:36:04;102669.75;;;10.34;46.42
5651;BME280;40241;52.684;9.758;2023-04-19T06:38:30;102661.81;;;10.36;46.00
5651;BME280;40241;52.684;9.758;2023-04-19T06:40:55;102660.81;;;10.43;46.24
5651;BME280;40241;52.684;9.758;2023-04-19T06:43:21;102665.66;;;10.51;46.18
5651;BME280;40241;52.684;9.758;2023-04-19T06:45:46;102658.03;;;10.55;46.22
5651;BME280;40241;52.684;9.758;2023-04-19T06:48:12;102655.94;;;10.60;46.16
5651;BME280;40241;52.684;9.758;2023-04-19T06:50:37;102663.78;;;10.61;46.27
5651;BME280;40241;52.684;9.758;2023-04-19T06:53:03;102665.94;;;10.66;46.25
5651;BME280;40241;52.684;9.758;2023-04-19T06:55:28;102657.59;;;10.70;46.17
5651;BME280;40241;52.684;9.758;2023-04-19T06:57:54;102653.59;;;10.71;45.99
5651;BME280;40241;52.684;9.758;2023-04-19T07:00:19;102648.44;;;10.73;46.08
5651;BME280;40241;52.684;9.758;2023-04-19T07:02:45;102646.72;;;10.88;46.23
5651;BME280;40241;52.684;9.758;2023-04-19T07:05:10;102645.38;;;10.92;45.93
5651;BME280;40241;52.684;9.758;2023-04-19T07:07:37;102643.19;;;11.00;45.63
5651;BME280;40241;52.684;9.758;2023-04-19T07:10:06;102637.28;;;11.10;45.49
5651;BME280;40241;52.684;9.758;2023-04-19T07:12:31;102642.41;;;11.21;45.50
5651;BME280;40241;52.684;9.758;2023-04-19T07:14:57;102632.09;;;11.34;45.63
5651;BME280;40241;52.684;9.758;2023-04-19T07:17:22;102634.13;;;11.43;45.19
5651;BME280;40241;52.684;9.758;2023-04-19T07:19:48;102630.66;;;11.51;44.89
5651;BME280;40241;52.684;9.758;2023-04-19T07:22:13;102631.81;;;11.63;45.23
5651;BME280;40241;52.684;9.758;2023-04-19T07:24:39;102625.19;;;11.73;44.82
5651;BME280;40241;52.684;9.758;2023-04-19T07:27:06;102621.22;;;11.83;44.83
5651;BME280;40241;52.684;9.758;2023-04-19T07:29:34;102619.88;;;11.87;43.77
5651;BME280;40241;52.684;9.758;2023-04-19T07:32:01;102623.31;;;12.00;44.09
5651;BME280;40241;52.684;9.758;2023-04-19T07:34:26;102617.81;;;12.10;43.92
5651;BME280;40241;52.684;9.758;2023-04-19T07:36:51;102618.31;;;12.26;44.01
5651;BME280;40241;52.684;9.758;2023-04-19T07:39:17;102615.31;;;12.42;43.86
5651;BME280;40241;52.684;9.758;2023-04-19T07:41:43;102630.38;;;12.59;43.63
5651;BME280;40241;52.684;9.758;2023-04-19T07:44:08;102602.91;;;12.74;43.10
5651;BME280;40241;52.684;9.758;2023-04-19T07:46:35;102606.28;;;12.87;43.11
5651;BME280;40241;52.684;9.758;2023-04-19T07:49:01;102611.81;;;12.96;42.35
5651;BME280;40241;52.684;9.758;2023-04-19T07:51:27;102611.19;;;13.01;41.46
5651;BME280;40241;52.684;9.758;2023-04-19T07:53:52;102615.03;;;13.13;41.56
5651;BME280;40241;52.684;9.758;2023-04-19T07:56:18;102599.53;;;13.24;41.62
5651;BME280;40241;52.684;9.758;2023-04-19T07:58:44;102605.22;;;13.30;40.69
5651;BME280;40241;52.684;9.758;2023-04-19T08:01:10;102601.69;;;13.29;41.33
5651;BME280;40241;52.684;9.758;2023-04-19T08:03:35;102604.88;;;13.37;40.99
5651;BME280;40241;52.684;9.758;2023-04-19T08:06:02;102599.78;;;13.44;40.75
5651;BME280;40241;52.684;9.758;2023-04-19T08:08:29;102611.13;;;13.56;40.11
5651;BME280;40241;52.684;9.758;2023-04-19T08:10:55;102601.91;;;13.59;40.31
5651;BME280;40241;52.684;9.758;2023-04-19T08:13:21;102600.78;;;13.65;40.13
5651;BME280;40241;52.684;9.758;2023-04-19T08:15:46;102592.44;;;13.83;40.57
5651;BME280;40241;52.684;9.758;2023-04-19T08:18:12;102595.28;;;13.98;39.85
5651;BME280;40241;52.684;9.758;2023-04-19T08:20:37;102592.88;;;13.91;39.07
5651;BME280;40241;52.684;9.758;2023-04-19T08:23:02;102590.81;;;14.00;39.94
5651;BME280;40241;52.684;9.758;2023-04-19T08:25:30;102595.34;;;14.21;39.69
5651;BME280;40241;52.684;9.758;2023-04-19T08:27:56;102580.38;;;14.28;39.02
5651;BME280;40241;52.684;9.758;2023-04-19T08:30:22;102578.34;;;14.28;38.04
5651;BME280;40241;52.684;9.758;2023-04-19T08:32:48;102582.06;;;14.35;38.74
5651;BME280;40241;52.684;9.758;2023-04-19T08:35:13;102573.84;;;14.40;38.26
5651;BME280;40241;52.684;9.758;2023-04-19T08:37:39;102573.22;;;14.45;38.01
5651;BME280;40241;52.684;9.758;2023-04-19T08:40:05;102566.06;;;14.53;36.95
5651;BME280;40241;52.684;9.758;2023-04-19T08:42:31;102573.88;;;14.55;36.68
5651;BME280;40241;52.684;9.758;2023-04-19T08:45:00;102571.72;;;14.59;36.67
5651;BME280;40241;52.684;9.758;2023-04-19T08:47:27;102554.56;;;14.69;37.53
5651;BME280;40241;52.684;9.758;2023-04-19T08:49:54;102552.94;;;14.92;37.82
5651;BME280;40241;52.684;9.758;2023-04-19T08:52:19;102571.13;;;15.08;36.94
5651;BME280;40241;52.684;9.758;2023-04-19T08:54:45;102555.84;;;15.12;36.54
5651;BME280;40241;52.684;9.758;2023-04-19T08:57:11;102546.09;;;15.17;36.45
5651;BME280;40241;52.684;9.758;2023-04-19T08:59:36;102532.41;;;15.28;35.59
5651;BME280;40241;52.684;9.758;2023-04-19T09:02:02;102556.72;;;15.33;35.79
5651;BME280;40241;52.684;9.758;2023-04-19T09:04:27;102543.78;;;15.44;36.19
5651;BME280;40241;52.684;9.758;2023-04-19T09:06:54;102537.19;;;15.56;35.24
5651;BME280;40241;52.684;9.758;2023-04-19T09:09:25;102533.81;;;15.67;34.82
5651;BME280;40241;52.684;9.758;2023-04-19T09:11:51;102526.50;;;15.84;35.92
5651;BME280;40241;52.684;9.758;2023-04-19T09:14:18;102533.53;;;16.00;34.41
5651;BME280;40241;52.684;9.758;2023-04-19T09:16:44;102535.06;;;16.01;35.49
5651;BME280;40241;52.684;9.758;2023-04-19T09:19:10;102528.41;;;16.13;35.67
5651;BME280;40241;52.684;9.758;2023-04-19T09:21:41;102507.69;;;16.34;34.98
5651;BME280;40241;52.684;9.758;2023-04-19T09:24:07;102503.59;;;16.29;34.28
5651;BME280;40241;52.684;9.758;2023-04-19T09:26:33;102503.88;;;16.52;34.90
5651;BME280;40241;52.684;9.758;2023-04-19T09:29:08;102501.22;;;16.63;33.19
5651;BME280;40241;52.684;9.758;2023-04-19T09:31:36;102492.34;;;16.59;32.45
5651;BME280;40241;52.684;9.758;2023-04-19T09:34:17;102475.03;;;16.49;27.85
5651;BME280;40241;52.684;9.758;2023-04-19T09:36:43;102468.66;;;16.63;33.30
5651;BME280;40241;52.684;9.758;2023-04-19T09:39:09;102478.34;;;16.73;32.05
5651;BME280;40241;52.684;9.758;2023-04-19T09:41:52;102492.72;;;16.72;27.56
5651;BME280;40241;52.684;9.758;2023-04-19T09:44:18;102472.63;;;16.82;31.94
5651;BME280;40241;52.684;9.758;2023-04-19T09:46:44;102469.78;;;16.77;31.02
5651;BME280;40241;52.684;9.758;2023-04-19T09:51:42;102470.44;;;16.92;31.02
5651;BME280;40241;52.684;9.758;2023-04-19T09:54:09;102458.28;;;16.89;31.34
5651;BME280;40241;52.684;9.758;2023-04-19T09:56:35;102453.56;;;17.01;31.71
5651;BME280;40241;52.684;9.758;2023-04-19T09:59:02;102455.94;;;17.13;31.60
5651;BME280;40241;52.684;9.758;2023-04-19T10:01:29;102460.19;;;17.09;29.24
5651;BME280;40241;52.684;9.758;2023-04-19T10:03:56;102463.44;;;17.02;31.09
5651;BME280;40241;52.684;9.758;2023-04-19T10:06:22;102431.88;;;17.05;31.29
5651;BME280;40241;52.684;9.758;2023-04-19T10:08:49;102412.66;;;17.07;30.56
5651;BME280;40241;52.684;9.758;2023-04-19T10:11:15;102428.16;;;17.19;30.68
5651;BME280;40241;52.684;9.758;2023-04-19T10:13:42;102430.28;;;17.30;30.23
5651;BME280;40241;52.684;9.758;2023-04-19T10:16:09;102422.22;;;17.37;30.55
5651;BME280;40241;52.684;9.758;2023-04-19T10:18:34;102421.69;;;17.33;29.33
5651;BME280;40241;52.684;9.758;2023-04-19T10:21:05;102429.75;;;17.31;27.12
5651;BME280;40241;52.684;9.758;2023-04-19T10:23:32;102425.59;;;17.15;29.34
5651;BME280;40241;52.684;9.758;2023-04-19T10:25:58;102406.31;;;17.06;28.18
5651;BME280;40241;52.684;9.758;2023-04-19T10:28:27;102414.94;;;17.08;29.15
5651;BME280;40241;52.684;9.758;2023-04-19T10:31:03;102424.56;;;17.13;25.39
5651;BME280;40241;52.684;9.758;2023-04-19T10:33:36;102416.81;;;17.22;27.77
5651;BME280;40241;52.684;9.758;2023-04-19T10:36:02;102415.59;;;17.29;28.88
5651;BME280;40241;52.684;9.758;2023-04-19T10:38:47;102409.84;;;17.38;26.86
5651;BME280;40241;52.684;9.758;2023-04-19T10:41:20;102410.63;;;17.44;28.78
5651;BME280;40241;52.684;9.758;2023-04-19T10:51:28;102394.13;;;17.77;29.10
5651;BME280;40241;52.684;9.758;2023-04-19T10:54:00;102389.31;;;17.89;27.98
5651;BME280;40241;52.684;9.758;2023-04-19T11:04:24;102349.41;;;18.20;25.88
5651;BME280;40241;52.684;9.758;2023-04-19T11:07:08;102361.34;;;18.26;25.41
5651;BME280;40241;52.684;9.758;2023-04-19T11:14:29;102360.59;;;18.53;28.33
5651;BME280;40241;52.684;9.758;2023-04-19T11:16:55;102356.03;;;18.61;27.83
5651;BME280;40241;52.684;9.758;2023-04-19T11:19:20;102348.69;;;18.69;27.85
5651;BME280;40241;52.684;9.758;2023-04-19T11:21:46;102339.06;;;18.87;27.60
5651;BME280;40241;52.684;9.758;2023-04-19T11:24:12;102357.78;;;18.97;28.00
5651;BME280;40241;52.684;9.758;2023-04-19T11:26:41;102336.72;;;18.96;27.51
5651;BME280;40241;52.684;9.758;2023-04-19T11:29:08;102337.22;;;19.00;27.35
5651;BME280;40241;52.684;9.758;2023-04-19T11:31:34;102341.31;;;18.99;27.35
5651;BME280;40241;52.684;9.758;2023-04-19T11:33:59;102335.75;;;18.88;27.54
5651;BME280;40241;52.684;9.758;2023-04-19T11:36:26;102339.28;;;18.83;27.23
5651;BME280;40241;52.684;9.758;2023-04-19T11:38:52;102324.84;;;18.68;26.97
5651;BME280;40241;52.684;9.758;2023-04-19T11:41:17;102339.56;;;18.68;27.24
5651;BME280;40241;52.684;9.758;2023-04-19T11:43:43;102304.59;;;18.62;24.78
5651;BME280;40241;52.684;9.758;2023-04-19T11:46:13;102320.31;;;18.70;27.05
5651;BME280;40241;52.684;9.758;2023-04-19T11:48:49;102327.13;;;18.86;26.15
5651;BME280;40241;52.684;9.758;2023-04-19T11:51:16;102315.19;;;19.02;26.87
5651;BME280;40241;52.684;9.758;2023-04-19T11:53:41;102312.09;;;19.11;26.98
5651;BME280;40241;52.684;9.758;2023-04-19T11:56:08;102294.88;;;19.02;25.36
5651;BME280;40241;52.684;9.758;2023-04-19T11:58:41;102310.16;;;18.84;25.45
5651;BME280;40241;52.684;9.758;2023-04-19T12:01:11;102311.38;;;18.94;26.54
5651;BME280;40241;52.684;9.758;2023-04-19T12:03:44;102320.75;;;18.97;24.94
5651;BME280;40241;52.684;9.758;2023-04-19T12:06:12;102304.06;;;18.91;25.59
5651;BME280;40241;52.684;9.758;2023-04-19T12:08:42;102311.88;;;18.98;25.74
5651;BME280;40241;52.684;9.758;2023-04-19T12:11:07;102302.53;;;18.85;26.20
5651;BME280;40241;52.684;9.758;2023-04-19T12:13:33;102304.00;;;19.08;26.79
5651;BME280;40241;52.684;9.758;2023-04-19T12:15:59;102297.81;;;19.31;27.04
5651;BME280;40241;52.684;9.758;2023-04-19T12:18:25;102307.44;;;19.47;26.93
5651;BME280;40241;52.684;9.758;2023-04-19T12:20:51;102288.94;;;19.38;25.21
5651;BME280;40241;52.684;9.758;2023-04-19T12:23:18;102297.16;;;19.03;25.11
5651;BME280;40241;52.684;9.758;2023-04-19T12:25:46;102302.97;;;19.05;26.13
5651;BME280;40241;52.684;9.758;2023-04-19T12:28:13;102304.44;;;19.23;26.82
5651;BME280;40241;52.684;9.758;2023-04-19T12:30:39;102284.50;;;19.60;27.00
5651;BME280;40241;52.684;9.758;2023-04-19T12:33:05;102281.81;;;19.37;26.32
5651;BME280;40241;52.684;9.758;2023-04-19T12:35:31;102289.53;;;19.09;25.73
5651;BME280;40241;52.684;9.758;2023-04-19T12:37:58;102284.78;;;18.88;25.74
5651;BME280;40241;52.684;9.758;2023-04-19T12:40:25;102285.03;;;18.84;25.87
5651;BME280;40241;52.684;9.758;2023-04-19T12:42:51;102281.72;;;18.91;26.30
5651;BME280;40241;52.684;9.758;2023-04-19T12:45:17;102277.09;;;19.05;26.43
5651;BME280;40241;52.684;9.758;2023-04-19T12:47:44;102274.34;;;18.99;26.91
5651;BME280;40241;52.684;9.758;2023-04-19T12:50:11;102269.34;;;18.70;25.89
5651;BME280;40241;52.684;9.758;2023-04-19T12:52:37;102273.16;;;18.61;26.78
5651;BME280;40241;52.684;9.758;2023-04-19T12:55:02;102280.53;;;18.37;26.14
5651;BME280;40241;52.684;9.758;2023-04-19T12:57:28;102259.22;;;18.23;26.63
5651;BME280;40241;52.684;9.758;2023-04-19T12:59:54;102254.66;;;18.42;26.43
5651;BME280;40241;52.684;9.758;2023-04-19T13:02:20;102262.81;;;18.45;25.09
5651;BME280;40241;52.684;9.758;2023-04-19T13:04:45;102247.34;;;18.50;26.33
5651;BME280;40241;52.684;9.758;2023-04-19T13:07:10;102253.69;;;18.45;26.09
5651;BME280;40241;52.684;9.758;2023-04-19T13:09:36;102256.97;;;18.32;26.82
5651;BME280;40241;52.684;9.758;2023-04-19T13:12:01;102249.34;;;18.27;26.98
5651;BME280;40241;52.684;9.758;2023-04-19T13:14:27;102242.75;;;18.58;27.04
5651;BME280;40241;52.684;9.758;2023-04-19T13:16:53;102229.50;;;18.86;26.73
5651;BME280;40241;52.684;9.758;2023-04-19T13:19:19;102239.69;;;18.73;26.80
5651;BME280;40241;52.684;9.758;2023-04-19T13:21:44;102245.81;;;18.43;26.90